Time;durP1;ratioP1;P1;durP2;ratioP2;P2;SDS_P1;SDS_P2;PMS_P1;PMS_P2;Temp;Humidity;BMP_temperature;BMP_pressure;BME280_temperature;BME280_humidity;BME280_pressure;Samples;Min_cycle;Max_cycle;Signal;HPM_P1;HPM_P2
2023/06/07 00:00:10;;;;;;;4.00;3.37;;;15.10;99.90;;;;;;5034071;28;20240;-38
2023/06/07 00:02:41;;;;;;;4.13;3.30;;;15.20;99.90;;;;;;5048342;28;20183;-38
2023/06/07 00:05:07;;;;;;;4.70;3.50;;;15.30;99.90;;;;;;5041003;28;20194;-40
2023/06/07 00:07:35;;;;;;;5.00;3.90;;;15.30;99.90;;;;;;5025894;28;20193;-40
2023/06/07 00:10:03;;;;;;;4.20;3.43;;;15.40;99.90;;;;;;5026110;28;20221;-36
2023/06/07 00:12:28;;;;;;;4.10;3.43;;;15.40;99.90;;;;;;5033747;28;20277;-38
2023/06/07 00:14:54;;;;;;;4.47;3.60;;;15.40;99.90;;;;;;5041971;28;20288;-38
2023/06/07 00:17:20;;;;;;;6.83;3.57;;;15.40;99.90;;;;;;5027913;28;20183;-39
2023/06/07 00:19:46;;;;;;;3.60;3.30;;;15.30;99.90;;;;;;5031288;28;20206;-38
2023/06/07 00:22:12;;;;;;;4.00;3.20;;;15.20;99.90;;;;;;5029433;28;20179;-40
2023/06/07 00:24:39;;;;;;;3.13;2.90;;;15.10;99.90;;;;;;5018320;28;20202;-41
2023/06/07 00:27:05;;;;;;;3.50;2.97;;;15.00;99.90;;;;;;5041540;28;20264;-40
2023/06/07 00:29:31;;;;;;;4.33;3.47;;;15.00;99.90;;;;;;5033657;28;20186;-39
2023/06/07 00:31:57;;;;;;;3.70;3.40;;;14.90;99.90;;;;;;5025276;28;20186;-38
2023/06/07 00:34:23;;;;;;;3.90;3.57;;;14.90;99.90;;;;;;5019542;28;20301;-37
2023/06/07 00:36:49;;;;;;;5.00;3.73;;;14.80;99.90;;;;;;5029713;28;20724;-40
2023/06/07 00:39:15;;;;;;;3.20;2.90;;;14.70;99.90;;;;;;5021879;28;20260;-40
2023/06/07 00:41:41;;;;;;;3.70;3.33;;;14.60;99.90;;;;;;5029433;28;20182;-36
2023/06/07 00:44:07;;;;;;;5.03;4.23;;;14.60;99.90;;;;;;5021578;28;20207;-40
2023/06/07 00:46:33;;;;;;;4.33;3.93;;;14.40;99.90;;;;;;5029870;28;20175;-38
2023/06/07 00:48:59;;;;;;;4.57;4.10;;;14.30;99.90;;;;;;5023945;28;20177;-39
2023/06/07 00:51:32;;;;;;;5.23;4.23;;;14.20;99.90;;;;;;5041294;28;20177;-34
2023/06/07 00:54:00;;;;;;;8.03;4.30;;;14.10;99.90;;;;;;5033033;28;20229;-39
2023/06/07 00:56:27;;;;;;;5.20;3.73;;;14.10;99.90;;;;;;5048207;28;20180;-40
2023/06/07 00:58:53;;;;;;;5.17;4.30;;;14.00;99.90;;;;;;5015009;28;20632;-37
2023/06/07 01:01:19;;;;;;;5.17;3.90;;;14.10;99.90;;;;;;5031970;28;20186;-41
2023/06/07 01:03:45;;;;;;;6.93;3.93;;;14.00;99.90;;;;;;5037574;28;20181;-35
2023/06/07 01:06:13;;;;;;;6.80;4.40;;;14.00;99.90;;;;;;5030451;28;20213;-39
2023/06/07 01:08:40;;;;;;;4.70;4.27;;;14.00;99.90;;;;;;5025210;28;20175;-39
2023/06/07 01:11:08;;;;;;;7.93;4.20;;;14.00;99.90;;;;;;5029186;28;20225;-38
2023/06/07 01:13:35;;;;;;;4.57;3.90;;;14.00;99.90;;;;;;5037717;28;20186;-38
2023/06/07 01:16:01;;;;;;;5.10;4.00;;;14.00;99.90;;;;;;5028855;28;20197;-39
2023/06/07 01:18:28;;;;;;;5.33;4.17;;;14.00;99.90;;;;;;5027298;28;20182;-40
2023/06/07 01:20:57;;;;;;;4.10;3.70;;;14.00;99.90;;;;;;5032671;28;20290;-39
2023/06/07 01:23:31;;;;;;;5.23;4.07;;;14.10;99.90;;;;;;5032925;28;20188;-39
2023/06/07 01:25:58;;;;;;;4.40;4.00;;;14.00;99.90;;;;;;5047424;28;20184;-38
2023/06/07 01:28:28;;;;;;;5.67;4.10;;;14.10;99.90;;;;;;5027379;28;20190;-37
2023/06/07 01:30:55;;;;;;;4.70;3.70;;;14.00;99.90;;;;;;5031722;28;20178;-37
2023/06/07 01:33:21;;;;;;;3.83;3.53;;;13.90;99.90;;;;;;5034669;28;20193;-39
2023/06/07 01:35:50;;;;;;;5.63;3.40;;;13.80;99.90;;;;;;5023646;28;20271;-36
2023/06/07 01:38:19;;;;;;;4.63;3.77;;;13.70;99.90;;;;;;5033623;28;20186;-36
2023/06/07 01:40:46;;;;;;;4.90;3.80;;;13.70;99.90;;;;;;5049504;28;20252;-39
2023/06/07 01:43:14;;;;;;;4.23;3.83;;;13.70;99.90;;;;;;5038761;28;20249;-38
2023/06/07 01:45:42;;;;;;;4.57;4.00;;;13.60;99.90;;;;;;5029345;28;20699;-38
2023/06/07 01:48:09;;;;;;;4.30;3.90;;;13.60;99.90;;;;;;5048988;28;20178;-39
2023/06/07 01:50:34;;;;;;;5.50;4.27;;;13.60;99.90;;;;;;5041144;28;20722;-38
2023/06/07 01:53:00;;;;;;;5.10;4.30;;;13.50;99.90;;;;;;5039554;28;20190;-40
2023/06/07 01:55:27;;;;;;;4.00;3.60;;;13.50;99.90;;;;;;5042987;28;20255;-40
2023/06/07 01:58:03;;;;;;;4.40;4.00;;;13.50;99.90;;;;;;5046475;28;20185;-37
2023/06/07 02:00:35;;;;;;;4.43;4.03;;;13.50;99.90;;;;;;5048281;28;20206;-35
2023/06/07 02:03:14;;;;;;;5.30;4.37;;;13.50;99.90;;;;;;5038153;28;20188;-39
2023/06/07 02:05:47;;;;;;;5.73;4.10;;;13.50;99.90;;;;;;5028824;28;20202;-40
2023/06/07 02:08:27;;;;;;;4.53;4.03;;;13.40;99.90;;;;;;5044504;28;20184;-38
2023/06/07 02:10:54;;;;;;;6.40;4.27;;;13.40;99.90;;;;;;5038163;28;20186;-39
2023/06/07 02:13:20;;;;;;;5.23;3.90;;;13.40;99.90;;;;;;5019771;28;20278;-40
2023/06/07 02:15:47;;;;;;;6.00;3.90;;;13.40;99.90;;;;;;5030539;28;20213;-37
2023/06/07 02:18:18;;;;;;;4.10;3.70;;;13.30;99.90;;;;;;5031314;28;20187;-39
2023/06/07 02:20:44;;;;;;;4.30;3.90;;;13.20;99.90;;;;;;5031692;28;20212;-38
2023/06/07 02:23:10;;;;;;;4.83;4.00;;;13.20;99.90;;;;;;5020634;28;20174;-39
2023/06/07 02:25:35;;;;;;;4.57;3.97;;;13.20;99.90;;;;;;5041318;28;20295;-39
2023/06/07 02:28:02;;;;;;;5.57;4.17;;;13.10;99.90;;;;;;5028034;28;20185;-36
2023/06/07 02:30:28;;;;;;;3.70;3.40;;;13.10;99.90;;;;;;5033167;28;20176;-36
2023/06/07 02:32:55;;;;;;;5.50;3.90;;;13.10;99.90;;;;;;5042500;28;20185;-42
2023/06/07 02:35:22;;;;;;;4.07;3.73;;;13.10;99.90;;;;;;5037223;28;20290;-40
2023/06/07 02:37:48;;;;;;;5.83;4.27;;;13.10;99.90;;;;;;5043420;28;20190;-42
2023/06/07 02:40:14;;;;;;;5.20;4.70;;;13.00;99.90;;;;;;5044372;28;20208;-42
2023/06/07 02:42:47;;;;;;;6.90;4.10;;;13.00;99.90;;;;;;5035798;28;20225;-41
2023/06/07 02:45:13;;;;;;;4.97;4.30;;;13.10;99.90;;;;;;5041799;28;20207;-42
2023/06/07 02:47:40;;;;;;;4.53;4.13;;;13.10;99.90;;;;;;5040150;28;20218;-42
2023/06/07 02:50:06;;;;;;;4.67;3.87;;;13.00;99.90;;;;;;5048890;28;20191;-37
2023/06/07 02:52:34;;;;;;;5.90;4.00;;;13.00;99.90;;;;;;5031839;28;20186;-42
2023/06/07 02:55:01;;;;;;;5.03;4.03;;;13.00;99.90;;;;;;5026015;28;20212;-41
2023/06/07 02:57:27;;;;;;;4.80;4.13;;;13.00;99.90;;;;;;5051885;28;20198;-41
2023/06/07 02:59:53;;;;;;;4.70;4.10;;;13.00;99.90;;;;;;5043693;28;20213;-41
2023/06/07 03:02:23;;;;;;;7.57;4.10;;;12.90;99.90;;;;;;5048354;28;20212;-40
2023/06/07 03:04:51;;;;;;;4.77;4.10;;;12.90;99.90;;;;;;5025129;28;20674;-39
2023/06/07 03:07:20;;;;;;;5.03;4.20;;;12.80;99.90;;;;;;5027451;28;20218;-41
2023/06/07 03:09:47;;;;;;;6.00;4.10;;;12.70;99.90;;;;;;5032071;28;20185;-42
2023/06/07 03:12:14;;;;;;;4.50;4.10;;;12.60;99.90;;;;;;5031843;28;20202;-42
2023/06/07 03:14:45;;;;;;;4.90;4.40;;;12.60;99.90;;;;;;5031295;28;20203;-42
2023/06/07 03:17:14;;;;;;;5.43;4.73;;;12.60;99.90;;;;;;5027465;28;20196;-42
2023/06/07 03:19:42;;;;;;;4.67;4.10;;;12.50;99.90;;;;;;5051428;28;20278;-38
2023/06/07 03:22:08;;;;;;;4.83;4.43;;;12.50;99.90;;;;;;5051424;28;20182;-40
2023/06/07 03:24:37;;;;;;;5.57;4.90;;;12.40;99.90;;;;;;5035996;28;20208;-41
2023/06/07 03:27:05;;;;;;;5.13;4.63;;;12.30;99.90;;;;;;5042225;28;20265;-42
2023/06/07 03:29:32;;;;;;;5.70;4.93;;;12.30;99.90;;;;;;5050467;28;20277;-42
2023/06/07 03:31:58;;;;;;;5.17;4.63;;;12.30;99.90;;;;;;5048529;28;20278;-41
2023/06/07 03:34:26;;;;;;;5.70;5.20;;;12.30;99.90;;;;;;5037199;28;20221;-40
2023/06/07 03:36:52;;;;;;;5.83;4.97;;;12.30;99.90;;;;;;5032211;28;20274;-42
2023/06/07 03:39:18;;;;;;;5.57;4.90;;;12.30;99.90;;;;;;5034506;28;20297;-42
2023/06/07 03:41:44;;;;;;;5.77;4.67;;;12.30;99.90;;;;;;5026214;28;20259;-40
2023/06/07 03:44:15;;;;;;;5.23;4.50;;;12.30;99.90;;;;;;5034811;28;20207;-42
2023/06/07 03:46:41;;;;;;;5.10;4.70;;;12.20;99.90;;;;;;5035005;28;20172;-41
2023/06/07 03:49:08;;;;;;;5.60;4.30;;;12.30;99.90;;;;;;5039697;28;20203;-41
2023/06/07 03:51:38;;;;;;;4.80;4.40;;;12.30;99.90;;;;;;5022317;28;20259;-42
2023/06/07 03:54:04;;;;;;;6.00;4.30;;;12.40;99.90;;;;;;5017142;28;20204;-41
2023/06/07 03:56:31;;;;;;;6.87;5.00;;;12.40;99.90;;;;;;5042613;28;20174;-41
2023/06/07 03:59:01;;;;;;;4.70;4.30;;;12.40;99.90;;;;;;5042537;28;20198;-42
2023/06/07 04:01:27;;;;;;;4.90;4.40;;;12.40;99.90;;;;;;5036676;28;20183;-41
2023/06/07 04:03:56;;;;;;;5.17;4.37;;;12.40;99.90;;;;;;5047082;28;20198;-40
2023/06/07 04:06:24;;;;;;;6.93;4.27;;;12.50;99.90;;;;;;5016278;28;20264;-42
2023/06/07 04:08:56;;;;;;;5.77;4.57;;;12.40;99.90;;;;;;5047936;28;20179;-42
2023/06/07 04:11:26;;;;;;;6.50;4.43;;;12.40;99.90;;;;;;5045315;28;20195;-41
2023/06/07 04:13:53;;;;;;;5.20;4.70;;;12.30;99.90;;;;;;5028219;28;20216;-42
2023/06/07 04:16:21;;;;;;;5.90;5.30;;;12.30;99.90;;;;;;5023604;28;20180;-42
2023/06/07 04:18:48;;;;;;;6.20;4.53;;;12.30;99.90;;;;;;5041429;28;20182;-41
2023/06/07 04:21:15;;;;;;;6.27;4.73;;;12.40;99.90;;;;;;5029390;28;20225;-41
2023/06/07 04:23:43;;;;;;;5.50;5.00;;;12.40;99.90;;;;;;5038353;28;20174;-41
2023/06/07 04:26:11;;;;;;;5.83;4.90;;;12.40;99.90;;;;;;5033932;28;20178;-39
2023/06/07 04:28:37;;;;;;;4.90;4.40;;;12.50;99.90;;;;;;5041993;28;20296;-41
2023/06/07 04:31:08;;;;;;;5.00;4.60;;;12.60;99.90;;;;;;5041619;28;20191;-41
2023/06/07 04:33:37;;;;;;;4.87;4.47;;;12.60;99.90;;;;;;5033604;28;20207;-39
2023/06/07 04:36:03;;;;;;;5.87;4.47;;;12.60;99.90;;;;;;5050016;28;20194;-42
2023/06/07 04:38:29;;;;;;;5.70;4.87;;;12.70;99.90;;;;;;5041797;28;20264;-41
2023/06/07 04:41:06;;;;;;;5.67;5.07;;;12.70;99.90;;;;;;5033308;28;20211;-41
2023/06/07 04:43:36;;;;;;;5.37;4.87;;;12.80;99.90;;;;;;5026733;28;20183;-41
2023/06/07 04:46:03;;;;;;;7.23;4.87;;;12.80;99.90;;;;;;5049040;28;20184;-40
2023/06/07 04:48:31;;;;;;;5.40;4.80;;;12.80;99.90;;;;;;5027397;28;20184;-40
2023/06/07 04:51:08;;;;;;;5.27;4.77;;;12.80;99.90;;;;;;5039054;28;20193;-41
2023/06/07 04:53:42;;;;;;;5.13;4.70;;;12.80;99.90;;;;;;5030454;28;20313;-41
2023/06/07 04:56:11;;;;;;;5.30;4.80;;;12.90;99.90;;;;;;5041479;28;20192;-41
2023/06/07 04:58:40;;;;;;;5.83;4.87;;;12.90;99.90;;;;;;5025035;28;20204;-41
2023/06/07 05:01:10;;;;;;;7.43;4.77;;;12.90;99.90;;;;;;5019126;28;20206;-41
2023/06/07 05:03:40;;;;;;;7.80;4.87;;;13.00;99.90;;;;;;5019851;28;20179;-39
2023/06/07 05:06:06;;;;;;;6.00;5.50;;;13.10;99.90;;;;;;5030253;28;20194;-41
2023/06/07 05:08:32;;;;;;;6.57;5.40;;;13.00;99.90;;;;;;5027843;28;20197;-41
2023/06/07 05:10:58;;;;;;;5.83;5.30;;;13.10;99.90;;;;;;5049416;28;20184;-41
2023/06/07 05:13:24;;;;;;;7.27;5.60;;;13.20;99.90;;;;;;5050316;28;20198;-41
2023/06/07 05:15:51;;;;;;;6.17;5.60;;;13.30;99.90;;;;;;5039990;28;20200;-41
2023/06/07 05:18:19;;;;;;;6.27;5.10;;;13.30;99.90;;;;;;5029401;28;20186;-40
2023/06/07 05:20:49;;;;;;;6.07;5.47;;;13.40;99.90;;;;;;5029008;28;20196;-39
2023/06/07 05:23:16;;;;;;;6.60;6.00;;;13.40;99.90;;;;;;5033613;28;20176;-41
2023/06/07 05:25:44;;;;;;;5.97;5.30;;;13.50;99.90;;;;;;5024750;28;20224;-41
2023/06/07 05:28:12;;;;;;;8.23;5.67;;;13.60;99.90;;;;;;5024611;28;20183;-41
2023/06/07 05:30:39;;;;;;;7.73;5.77;;;13.70;99.90;;;;;;5047390;28;20207;-40
2023/06/07 05:33:06;;;;;;;6.17;5.57;;;13.70;99.90;;;;;;5047515;28;20208;-41
2023/06/07 05:35:34;;;;;;;6.67;5.93;;;13.80;99.90;;;;;;5040875;28;20204;-41
2023/06/07 05:38:00;;;;;;;6.13;5.53;;;14.00;99.90;;;;;;5030587;28;20185;-41
2023/06/07 05:40:26;;;;;;;7.77;5.70;;;14.10;99.90;;;;;;5036593;28;20206;-41
2023/06/07 05:42:54;;;;;;;8.30;5.60;;;14.20;99.90;;;;;;5038422;28;20188;-41
2023/06/07 05:45:20;;;;;;;6.57;5.87;;;14.30;99.90;;;;;;5028058;28;20201;-41
2023/06/07 05:47:46;;;;;;;7.23;5.83;;;14.50;99.90;;;;;;5040682;28;20183;-36
2023/06/07 05:50:12;;;;;;;8.07;5.70;;;14.40;99.90;;;;;;5032731;28;20253;-41
2023/06/07 05:52:40;;;;;;;7.60;5.53;;;14.50;99.90;;;;;;5020801;28;20243;-42
2023/06/07 05:55:07;;;;;;;6.90;5.47;;;14.70;99.90;;;;;;5029676;28;20301;-41
2023/06/07 05:57:34;;;;;;;6.60;5.90;;;14.80;99.90;;;;;;5043546;28;20193;-41
2023/06/07 06:00:00;;;;;;;7.70;5.43;;;14.90;99.90;;;;;;5030471;28;20215;-40
2023/06/07 06:02:29;;;;;;;6.20;5.43;;;15.00;99.90;;;;;;5043970;28;20185;-41
2023/06/07 06:04:56;;;;;;;6.33;5.30;;;15.10;99.90;;;;;;5028238;28;20280;-38
2023/06/07 06:07:22;;;;;;;6.27;5.77;;;15.30;99.90;;;;;;5022903;28;20186;-41
2023/06/07 06:09:48;;;;;;;6.43;5.30;;;15.40;99.90;;;;;;5041630;28;20189;-41
2023/06/07 06:12:13;;;;;;;5.10;4.67;;;15.60;99.90;;;;;;5027441;28;20217;-37
2023/06/07 06:14:39;;;;;;;10.00;5.63;;;15.70;99.90;;;;;;5036094;28;20296;-40
2023/06/07 06:17:06;;;;;;;6.20;5.07;;;15.90;99.90;;;;;;5025173;28;20193;-41
2023/06/07 06:19:32;;;;;;;6.63;5.93;;;16.00;99.90;;;;;;5041121;28;20202;-42
2023/06/07 06:21:57;;;;;;;5.80;5.20;;;16.20;99.90;;;;;;5040714;28;20188;-41
2023/06/07 06:24:23;;;;;;;5.70;5.20;;;16.40;99.90;;;;;;5037494;28;20775;-39
2023/06/07 06:26:50;;;;;;;7.20;5.67;;;16.50;99.90;;;;;;5044522;28;20256;-41
2023/06/07 06:29:16;;;;;;;7.03;5.70;;;16.60;99.90;;;;;;5041753;28;20181;-42
2023/06/07 06:31:43;;;;;;;7.83;5.83;;;16.70;99.90;;;;;;5052418;28;20177;-41
2023/06/07 06:34:10;;;;;;;6.07;5.47;;;16.60;99.90;;;;;;5035976;28;20210;-41
2023/06/07 06:36:36;;;;;;;7.15;5.55;;;16.90;99.90;;;;;;5052271;28;20181;-41
2023/06/07 06:39:03;;;;;;;5.90;5.40;;;17.10;99.90;;;;;;5016426;28;20245;-41
2023/06/07 06:41:30;;;;;;;6.30;5.73;;;17.30;99.90;;;;;;5046332;28;20205;-42
2023/06/07 06:43:57;;;;;;;5.80;5.20;;;17.50;99.90;;;;;;5035765;28;20293;-42
2023/06/07 06:46:23;;;;;;;6.57;5.60;;;17.60;99.90;;;;;;5032289;28;20642;-42
2023/06/07 06:48:48;;;;;;;6.65;5.47;;;17.70;99.90;;;;;;5048878;28;20189;-42
2023/06/07 06:51:14;;;;;;;6.32;5.40;;;17.80;99.90;;;;;;5052086;28;20196;-40
2023/06/07 06:53:41;;;;;;;6.47;5.60;;;18.00;99.90;;;;;;5035273;28;20220;-41
2023/06/07 06:56:07;;;;;;;6.15;5.35;;;18.10;99.90;;;;;;5033005;28;20204;-41
2023/06/07 06:58:34;;;;;;;6.10;5.50;;;18.30;99.90;;;;;;5046185;28;20182;-41
2023/06/07 07:01:04;;;;;;;6.43;5.22;;;18.30;99.90;;;;;;5048271;28;20210;-42
2023/06/07 07:03:30;;;;;;;5.30;4.80;;;18.40;99.90;;;;;;5044996;28;20224;-42
2023/06/07 07:05:56;;;;;;;4.40;4.00;;;18.50;99.90;;;;;;5053228;28;20205;-41
2023/06/07 07:08:22;;;;;;;5.60;4.72;;;18.60;99.90;;;;;;5052908;28;20181;-41
2023/06/07 07:10:48;;;;;;;4.82;4.43;;;18.80;99.90;;;;;;5043796;28;20178;-42
2023/06/07 07:13:14;;;;;;;5.65;4.47;;;19.00;99.90;;;;;;5034752;28;20178;-39
2023/06/07 07:15:40;;;;;;;4.90;4.40;;;19.20;99.90;;;;;;5050583;28;20252;-42
2023/06/07 07:18:07;;;;;;;4.95;4.50;;;19.40;99.90;;;;;;5034678;28;20194;-39
2023/06/07 07:20:34;;;;;;;5.28;4.88;;;19.50;99.90;;;;;;5035166;28;20206;-40
2023/06/07 07:23:01;;;;;;;5.43;4.30;;;19.70;99.90;;;;;;5033868;28;20185;-42
2023/06/07 07:25:27;;;;;;;5.13;4.63;;;19.80;99.90;;;;;;5023405;28;20309;-42
2023/06/07 07:27:53;;;;;;;4.85;4.35;;;19.90;99.90;;;;;;5039644;28;20277;-42
2023/06/07 07:30:19;;;;;;;5.07;4.57;;;20.10;99.90;;;;;;5026050;28;20182;-42
2023/06/07 07:32:45;;;;;;;5.22;4.78;;;20.20;99.90;;;;;;5040844;28;20200;-41
2023/06/07 07:35:11;;;;;;;5.47;4.50;;;20.30;99.90;;;;;;5043555;28;20218;-41
2023/06/07 07:37:39;;;;;;;6.07;4.60;;;20.30;99.90;;;;;;5034459;28;20184;-42
2023/06/07 07:40:08;;;;;;;5.03;4.10;;;20.40;99.90;;;;;;5024357;28;20203;-40
2023/06/07 07:42:34;;;;;;;4.47;4.07;;;20.50;99.90;;;;;;5023071;28;20178;-41
2023/06/07 07:45:00;;;;;;;4.50;4.10;;;20.50;99.90;;;;;;5047489;28;20224;-42
2023/06/07 07:47:26;;;;;;;4.28;3.88;;;20.70;99.90;;;;;;5039542;28;20194;-42
2023/06/07 07:49:52;;;;;;;4.93;4.43;;;20.80;99.90;;;;;;5047723;28;20190;-36
2023/06/07 07:52:18;;;;;;;5.95;3.80;;;21.00;99.90;;;;;;5026255;28;20193;-42
2023/06/07 07:54:44;;;;;;;4.50;4.10;;;21.00;99.90;;;;;;5018341;28;20198;-42
2023/06/07 07:57:10;;;;;;;6.68;4.30;;;21.20;99.90;;;;;;5034417;28;20190;-42
2023/06/07 07:59:36;;;;;;;4.65;3.80;;;21.00;99.90;;;;;;5052158;28;20197;-42
2023/06/07 08:02:03;;;;;;;5.82;4.13;;;20.90;99.90;;;;;;5048296;28;20188;-41
2023/06/07 08:04:30;;;;;;;3.75;3.42;;;21.00;99.90;;;;;;5047218;28;20210;-42
2023/06/07 08:06:55;;;;;;;5.38;3.53;;;21.20;99.90;;;;;;5040591;28;20175;-41
2023/06/07 08:09:21;;;;;;;4.00;3.60;;;21.40;99.90;;;;;;5042407;28;20181;-39
2023/06/07 08:11:47;;;;;;;4.55;3.90;;;21.30;99.90;;;;;;5050440;28;20251;-42
2023/06/07 08:14:14;;;;;;;4.05;3.75;;;21.40;99.90;;;;;;5050324;28;20208;-42
2023/06/07 08:16:40;;;;;;;5.32;3.60;;;21.60;99.90;;;;;;5050097;28;20246;-42
2023/06/07 08:19:07;;;;;;;4.45;4.05;;;21.70;99.90;;;;;;5042537;28;20277;-39
2023/06/07 08:21:34;;;;;;;5.05;3.78;;;21.90;99.90;;;;;;5046300;28;20214;-39
2023/06/07 08:24:00;;;;;;;6.10;4.20;;;22.00;99.90;;;;;;5030940;28;20205;-42
2023/06/07 08:26:26;;;;;;;6.97;4.10;;;22.10;99.90;;;;;;5041148;28;20272;-42
2023/06/07 08:28:52;;;;;;;9.38;4.00;;;22.00;99.90;;;;;;5049454;28;20177;-42
2023/06/07 08:31:18;;;;;;;5.35;4.20;;;22.30;99.90;;;;;;5037486;28;20380;-41
2023/06/07 08:33:44;;;;;;;4.85;3.70;;;22.40;99.90;;;;;;5025532;28;20194;-42
2023/06/07 08:36:10;;;;;;;4.95;4.38;;;22.10;99.90;;;;;;5029720;28;20220;-42
2023/06/07 08:38:39;;;;;;;5.47;4.20;;;22.10;99.90;;;;;;5044293;28;20182;-41
2023/06/07 08:41:05;;;;;;;4.50;3.67;;;22.20;99.90;;;;;;5033533;28;20267;-42
2023/06/07 08:43:31;;;;;;;4.68;3.83;;;22.00;99.90;;;;;;5033466;28;20206;-42
2023/06/07 08:45:58;;;;;;;4.40;3.65;;;22.00;99.90;;;;;;5051221;28;20178;-42
2023/06/07 08:48:25;;;;;;;4.47;3.40;;;22.20;99.90;;;;;;5050116;28;20174;-39
2023/06/07 08:50:54;;;;;;;3.85;3.53;;;22.30;99.90;;;;;;5042594;28;20626;-41
2023/06/07 08:53:27;;;;;;;4.22;3.50;;;22.70;99.90;;;;;;5038436;28;20187;-42
2023/06/07 08:55:54;;;;;;;3.88;3.58;;;22.90;99.90;;;;;;5046426;28;20188;-41
2023/06/07 08:58:24;;;;;;;4.35;3.22;;;23.00;99.90;;;;;;5032988;28;20240;-41
2023/06/07 09:00:53;;;;;;;3.70;3.15;;;23.30;99.90;;;;;;5042084;28;20256;-42
2023/06/07 09:03:19;;;;;;;6.22;3.00;;;23.60;99.90;;;;;;5029457;28;20257;-42
2023/06/07 09:05:45;;;;;;;3.75;2.90;;;23.90;99.90;;;;;;5020244;28;20197;-42
2023/06/07 09:08:11;;;;;;;3.60;3.10;;;24.20;99.90;;;;;;5047408;28;20178;-39
2023/06/07 09:10:37;;;;;;;3.03;2.72;;;24.50;99.90;;;;;;5019057;28;20177;-41
2023/06/07 09:13:05;;;;;;;5.25;3.28;;;24.60;99.90;;;;;;5050846;28;20190;-42
2023/06/07 09:15:32;;;;;;;3.00;2.75;;;24.70;99.90;;;;;;5032883;28;20207;-42
2023/06/07 09:17:59;;;;;;;3.25;2.95;;;24.90;99.90;;;;;;5024199;28;20186;-41
2023/06/07 09:20:33;;;;;;;4.22;3.03;;;24.80;99.90;;;;;;5029427;28;20207;-42
2023/06/07 09:23:00;;;;;;;3.38;2.85;;;25.00;99.90;;;;;;5046100;28;20188;-42
2023/06/07 09:25:27;;;;;;;4.63;3.15;;;25.20;99.90;;;;;;5017015;28;20197;-42
2023/06/07 09:27:54;;;;;;;3.33;3.03;;;25.10;99.90;;;;;;5040799;28;20259;-41
2023/06/07 09:30:21;;;;;;;5.38;3.55;;;24.70;99.90;;;;;;5050597;28;20235;-42
2023/06/07 09:32:47;;;;;;;3.35;2.72;;;24.50;99.90;;;;;;5045094;28;20210;-42
2023/06/07 09:35:14;;;;;;;3.88;2.97;;;24.60;99.90;;;;;;5032287;28;20244;-42
2023/06/07 09:37:47;;;;;;;3.28;2.95;;;24.90;99.90;;;;;;5040112;28;20206;-42
2023/06/07 09:40:14;;;;;;;5.53;2.88;;;25.00;99.90;;;;;;5047833;28;20287;-42
2023/06/07 09:42:40;;;;;;;3.80;2.85;;;25.00;99.90;;;;;;5035497;28;20575;-40
2023/06/07 09:45:14;;;;;;;3.83;2.95;;;25.00;99.90;;;;;;5046953;28;20228;-41
2023/06/07 09:47:42;;;;;;;4.38;3.20;;;25.10;99.90;;;;;;5032872;28;20174;-41
2023/06/07 09:50:09;;;;;;;3.22;2.92;;;25.30;99.90;;;;;;5015700;28;20194;-42
2023/06/07 09:52:35;;;;;;;3.47;2.97;;;25.20;99.90;;;;;;5032828;28;20174;-42
2023/06/07 09:55:06;;;;;;;3.70;3.17;;;25.40;99.90;;;;;;5039917;28;20205;-42
2023/06/07 09:57:33;;;;;;;6.05;3.08;;;25.10;99.90;;;;;;5020958;28;20240;-42
2023/06/07 10:00:16;;;;;;;3.38;3.08;;;25.20;99.90;;;;;;5046430;28;20197;-42
2023/06/07 10:02:42;;;;;;;5.15;3.03;;;25.20;99.90;;;;;;5045872;28;20185;-42
2023/06/07 10:05:12;;;;;;;3.63;3.28;;;25.50;99.90;;;;;;5031670;28;20198;-41
2023/06/07 10:07:44;;;;;;;2.97;2.70;;;25.80;99.90;;;;;;5032600;28;20272;-40
2023/06/07 10:10:13;;;;;;;3.50;3.05;;;26.00;99.90;;;;;;5037909;28;20218;-40
2023/06/07 10:12:44;;;;;;;5.75;3.22;;;26.00;99.90;;;;;;5014478;28;20178;-40
2023/06/07 10:15:12;;;;;;;3.85;3.17;;;26.00;99.90;;;;;;5035151;28;20218;-42
2023/06/07 10:17:48;;;;;;;3.63;3.10;;;26.00;99.90;;;;;;5032070;28;20224;-41
2023/06/07 10:20:27;;;;;;;4.68;2.78;;;26.00;99.90;;;;;;5029805;28;20350;-40
2023/06/07 10:23:02;;;;;;;3.42;3.05;;;26.20;99.90;;;;;;5020965;28;20186;-43
2023/06/07 10:25:31;;;;;;;4.07;3.15;;;26.30;99.90;;;;;;5037151;28;20199;-40
2023/06/07 10:28:41;;;;;;;3.05;2.85;;;26.50;99.90;;;;;;5036637;28;20178;-41
2023/06/07 10:31:10;;;;;;;4.68;2.90;;;26.80;99.90;;;;;;5022011;28;20217;-41
2023/06/07 10:33:37;;;;;;;3.63;3.25;;;27.00;99.90;;;;;;5020406;28;20197;-42
2023/06/07 10:36:07;;;;;;;4.22;3.05;;;27.20;99.90;;;;;;5037495;28;20198;-41
2023/06/07 10:38:33;;;;;;;3.67;3.13;;;27.20;99.90;;;;;;5023905;28;20182;-42
2023/06/07 10:41:02;;;;;;;3.33;3.08;;;27.00;99.90;;;;;;5023243;28;20245;-43
2023/06/07 10:43:30;;;;;;;6.18;3.42;;;27.20;99.90;;;;;;5024293;28;20213;-39
2023/06/07 10:46:28;;;;;;;3.45;3.00;;;27.00;99.90;;;;;;5016484;28;20185;-42
2023/06/07 10:48:56;;;;;;;3.55;3.25;;;26.60;99.90;;;;;;5027946;28;20214;-38
2023/06/07 10:51:41;;;;;;;3.95;3.20;;;26.30;99.90;;;;;;5026635;28;20178;-42
2023/06/07 10:54:07;;;;;;;5.57;3.50;;;26.50;99.90;;;;;;5043077;28;20248;-42
2023/06/07 10:56:35;;;;;;;3.33;3.03;;;26.70;99.90;;;;;;5028235;28;20186;-40
2023/06/07 10:59:21;;;;;;;3.67;3.35;;;26.90;99.90;;;;;;5035772;28;20222;-43
2023/06/07 11:01:48;;;;;;;3.47;2.67;;;26.90;99.90;;;;;;5029839;28;20173;-43
2023/06/07 11:04:33;;;;;;;3.50;3.20;;;27.00;99.90;;;;;;5035227;28;20225;-42
2023/06/07 11:07:22;;;;;;;3.42;3.10;;;27.10;99.90;;;;;;5019232;28;20178;-41
2023/06/07 11:10:00;;;;;;;4.45;3.25;;;27.30;99.90;;;;;;5038423;28;20201;-42
2023/06/07 11:12:36;;;;;;;3.90;3.20;;;27.30;99.90;;;;;;5048456;28;20182;-42
2023/06/07 11:15:17;;;;;;;3.10;2.88;;;27.40;99.90;;;;;;5047751;28;20205;-43
2023/06/07 11:17:59;;;;;;;4.60;3.08;;;27.30;99.90;;;;;;5032084;28;20179;-42
2023/06/07 11:20:43;;;;;;;3.80;3.03;;;27.60;99.90;;;;;;5033660;28;20202;-42
2023/06/07 11:23:24;;;;;;;3.30;3.00;;;27.80;99.30;;;;;;5050236;28;20236;-42
2023/06/07 11:26:11;;;;;;;3.67;3.38;;;28.00;99.80;;;;;;5040025;28;20195;-42
2023/06/07 11:28:39;;;;;;;3.40;3.13;;;27.80;98.60;;;;;;5027756;28;20174;-42
2023/06/07 11:31:12;;;;;;;4.35;3.10;;;27.70;98.10;;;;;;5021357;28;20201;-40
2023/06/07 11:33:42;;;;;;;4.28;3.10;;;27.30;98.30;;;;;;5046786;28;20216;-42
2023/06/07 11:36:12;;;;;;;5.50;3.20;;;27.40;99.90;;;;;;5023941;28;20285;-42
2023/06/07 11:38:39;;;;;;;3.53;3.22;;;27.20;99.80;;;;;;5034590;28;20228;-42
2023/06/07 11:41:06;;;;;;;3.30;3.00;;;27.60;99.10;;;;;;5034326;28;20292;-40
2023/06/07 11:43:31;;;;;;;4.78;3.40;;;27.90;99.30;;;;;;5043052;28;20696;-42
2023/06/07 11:45:58;;;;;;;5.20;3.38;;;28.00;98.60;;;;;;5050718;28;20202;-42
2023/06/07 11:48:29;;;;;;;3.42;3.08;;;28.10;98.40;;;;;;5031694;28;20222;-42
2023/06/07 11:50:55;;;;;;;4.05;3.00;;;28.00;98.60;;;;;;5022807;28;20193;-39
2023/06/07 11:53:21;;;;;;;4.45;3.20;;;28.20;98.40;;;;;;5024958;28;20178;-41
2023/06/07 11:55:47;;;;;;;3.72;3.42;;;28.10;98.50;;;;;;5020455;28;20202;-42
2023/06/07 11:58:13;;;;;;;4.40;3.28;;;28.20;97.50;;;;;;5040468;28;20205;-41
2023/06/07 12:00:43;;;;;;;3.42;3.13;;;28.00;97.90;;;;;;5032138;28;20263;-42
2023/06/07 12:03:10;;;;;;;3.97;3.15;;;27.60;96.90;;;;;;5047531;28;20201;-42
2023/06/07 12:05:37;;;;;;;3.83;3.17;;;27.40;97.70;;;;;;5039474;28;20199;-42
2023/06/07 12:08:05;;;;;;;3.60;3.30;;;27.50;98.40;;;;;;5038580;28;20174;-42
2023/06/07 12:10:32;;;;;;;4.18;3.25;;;27.80;98.70;;;;;;5042113;28;20173;-42
2023/06/07 12:13:07;;;;;;;3.97;3.17;;;28.30;98.10;;;;;;5034630;28;20192;-41
2023/06/07 12:15:34;;;;;;;4.63;3.33;;;28.40;98.50;;;;;;5013558;28;20221;-42
2023/06/07 12:18:02;;;;;;;3.65;3.33;;;28.80;98.60;;;;;;5021687;28;20185;-39
2023/06/07 12:20:29;;;;;;;3.63;3.33;;;29.10;96.80;;;;;;5025653;28;20213;-42
2023/06/07 12:23:05;;;;;;;3.42;3.13;;;29.30;96.40;;;;;;5050897;28;20184;-41
2023/06/07 12:25:33;;;;;;;3.90;3.50;;;29.60;96.60;;;;;;5042100;28;20194;-42
2023/06/07 12:28:04;;;;;;;3.83;3.40;;;29.90;95.60;;;;;;5033929;28;20262;-42
2023/06/07 12:30:34;;;;;;;3.47;3.17;;;30.20;95.60;;;;;;5038662;28;20200;-42
2023/06/07 12:33:00;;;;;;;3.50;3.20;;;30.20;94.50;;;;;;5022319;28;20269;-42
2023/06/07 12:35:37;;;;;;;3.55;3.28;;;30.00;94.40;;;;;;5032749;28;20209;-42
2023/06/07 12:38:04;;;;;;;3.65;3.35;;;29.80;93.80;;;;;;5026041;28;20225;-42
2023/06/07 12:40:30;;;;;;;5.25;3.22;;;30.00;94.60;;;;;;5021650;28;20199;-42
2023/06/07 12:42:56;;;;;;;4.40;3.17;;;30.00;93.60;;;;;;5021938;28;20198;-42
2023/06/07 12:45:22;;;;;;;4.22;3.28;;;30.20;95.30;;;;;;5038385;28;20244;-42
2023/06/07 12:47:48;;;;;;;3.35;3.08;;;30.40;93.70;;;;;;5044147;28;20193;-42
2023/06/07 12:50:13;;;;;;;3.55;3.20;;;30.00;93.50;;;;;;5023331;28;20198;-43
2023/06/07 12:52:39;;;;;;;5.40;3.80;;;30.20;94.60;;;;;;5021961;28;20184;-42